sensor_id;sensor_type;location;lat;lon;timestamp;P1;durP1;ratioP1;P2;durP2;ratioP2
26303;SDS011;70693;48.680;8.890;2023-07-29T00:01:44;0.80;;;0.70;;
26303;SDS011;70693;48.680;8.890;2023-07-29T00:04:10;3.20;;;0.80;;
26303;SDS011;70693;48.680;8.890;2023-07-29T00:06:36;0.75;;;0.60;;
26303;SDS011;70693;48.680;8.890;2023-07-29T00:09:02;1.42;;;0.70;;
26303;SDS011;70693;48.680;8.890;2023-07-29T00:11:28;1.05;;;0.80;;
26303;SDS011;70693;48.680;8.890;2023-07-29T00:13:54;1.42;;;0.77;;
26303;SDS011;70693;48.680;8.890;2023-07-29T00:16:19;0.88;;;0.70;;
26303;SDS011;70693;48.680;8.890;2023-07-29T00:18:48;1.48;;;0.63;;
26303;SDS011;70693;48.680;8.890;2023-07-29T00:21:14;1.27;;;0.80;;
26303;SDS011;70693;48.680;8.890;2023-07-29T00:23:40;1.35;;;0.70;;
26303;SDS011;70693;48.680;8.890;2023-07-29T00:26:05;1.10;;;0.70;;
26303;SDS011;70693;48.680;8.890;2023-07-29T00:28:31;1.30;;;0.60;;
26303;SDS011;70693;48.680;8.890;2023-07-29T00:30:57;1.02;;;0.75;;
26303;SDS011;70693;48.680;8.890;2023-07-29T00:33:22;1.30;;;0.80;;
26303;SDS011;70693;48.680;8.890;2023-07-29T00:35:48;0.80;;;0.60;;
26303;SDS011;70693;48.680;8.890;2023-07-29T00:38:14;1.85;;;0.73;;
26303;SDS011;70693;48.680;8.890;2023-07-29T00:40:39;1.08;;;0.70;;
26303;SDS011;70693;48.680;8.890;2023-07-29T00:43:05;2.40;;;0.88;;
26303;SDS011;70693;48.680;8.890;2023-07-29T00:45:31;1.55;;;1.00;;
26303;SDS011;70693;48.680;8.890;2023-07-29T00:47:58;2.83;;;0.80;;
26303;SDS011;70693;48.680;8.890;2023-07-29T00:50:25;1.00;;;0.70;;
26303;SDS011;70693;48.680;8.890;2023-07-29T00:52:53;1.60;;;0.60;;
26303;SDS011;70693;48.680;8.890;2023-07-29T00:55:19;0.63;;;0.50;;
26303;SDS011;70693;48.680;8.890;2023-07-29T00:57:45;2.20;;;0.85;;
26303;SDS011;70693;48.680;8.890;2023-07-29T01:00:13;1.42;;;0.65;;
26303;SDS011;70693;48.680;8.890;2023-07-29T01:02:40;1.05;;;0.80;;
26303;SDS011;70693;48.680;8.890;2023-07-29T01:05:07;0.88;;;0.63;;
26303;SDS011;70693;48.680;8.890;2023-07-29T01:07:36;0.98;;;0.63;;
26303;SDS011;70693;48.680;8.890;2023-07-29T01:10:19;1.20;;;0.70;;
26303;SDS011;70693;48.680;8.890;2023-07-29T01:16:01;1.30;;;0.80;;
26303;SDS011;70693;48.680;8.890;2023-07-29T01:18:39;0.90;;;0.68;;
26303;SDS011;70693;48.680;8.890;2023-07-29T01:21:07;0.95;;;0.60;;
26303;SDS011;70693;48.680;8.890;2023-07-29T01:23:34;0.70;;;0.60;;
26303;SDS011;70693;48.680;8.890;2023-07-29T01:26:01;2.15;;;0.60;;
26303;SDS011;70693;48.680;8.890;2023-07-29T01:28:27;1.65;;;0.70;;
26303;SDS011;70693;48.680;8.890;2023-07-29T01:30:57;1.60;;;0.73;;
26303;SDS011;70693;48.680;8.890;2023-07-29T01:33:36;1.38;;;0.60;;
26303;SDS011;70693;48.680;8.890;2023-07-29T01:36:07;1.38;;;0.80;;
26303;SDS011;70693;48.680;8.890;2023-07-29T01:38:40;1.20;;;0.60;;
26303;SDS011;70693;48.680;8.890;2023-07-29T01:41:08;1.20;;;0.60;;
26303;SDS011;70693;48.680;8.890;2023-07-29T01:43:34;1.48;;;0.73;;
26303;SDS011;70693;48.680;8.890;2023-07-29T01:46:07;0.60;;;0.50;;
26303;SDS011;70693;48.680;8.890;2023-07-29T01:48:35;0.75;;;0.70;;
26303;SDS011;70693;48.680;8.890;2023-07-29T01:51:01;2.35;;;0.73;;
26303;SDS011;70693;48.680;8.890;2023-07-29T01:53:26;1.65;;;0.70;;
26303;SDS011;70693;48.680;8.890;2023-07-29T01:55:52;1.10;;;0.70;;
26303;SDS011;70693;48.680;8.890;2023-07-29T01:58:18;1.00;;;0.50;;
26303;SDS011;70693;48.680;8.890;2023-07-29T02:00:43;3.15;;;0.60;;
26303;SDS011;70693;48.680;8.890;2023-07-29T02:03:09;1.50;;;0.80;;
26303;SDS011;70693;48.680;8.890;2023-07-29T02:05:34;1.40;;;0.60;;
26303;SDS011;70693;48.680;8.890;2023-07-29T02:08:00;1.15;;;0.70;;
26303;SDS011;70693;48.680;8.890;2023-07-29T02:10:25;0.95;;;0.70;;
26303;SDS011;70693;48.680;8.890;2023-07-29T02:12:51;0.85;;;0.60;;
26303;SDS011;70693;48.680;8.890;2023-07-29T02:15:17;0.60;;;0.60;;
26303;SDS011;70693;48.680;8.890;2023-07-29T02:17:42;0.80;;;0.60;;
26303;SDS011;70693;48.680;8.890;2023-07-29T02:20:08;1.33;;;0.80;;
26303;SDS011;70693;48.680;8.890;2023-07-29T02:22:35;1.70;;;0.50;;
26303;SDS011;70693;48.680;8.890;2023-07-29T02:25:01;0.77;;;0.60;;
26303;SDS011;70693;48.680;8.890;2023-07-29T02:27:27;0.95;;;0.65;;
26303;SDS011;70693;48.680;8.890;2023-07-29T02:29:53;0.82;;;0.65;;
26303;SDS011;70693;48.680;8.890;2023-07-29T02:32:19;1.30;;;0.80;;
26303;SDS011;70693;48.680;8.890;2023-07-29T02:34:45;1.77;;;0.80;;
26303;SDS011;70693;48.680;8.890;2023-07-29T02:37:11;2.17;;;0.70;;
26303;SDS011;70693;48.680;8.890;2023-07-29T02:39:36;1.73;;;0.80;;
26303;SDS011;70693;48.680;8.890;2023-07-29T02:42:02;0.70;;;0.55;;
26303;SDS011;70693;48.680;8.890;2023-07-29T02:44:28;1.30;;;0.80;;
26303;SDS011;70693;48.680;8.890;2023-07-29T02:46:54;1.55;;;0.60;;
26303;SDS011;70693;48.680;8.890;2023-07-29T02:49:22;0.75;;;0.60;;
26303;SDS011;70693;48.680;8.890;2023-07-29T02:51:48;1.38;;;0.70;;
26303;SDS011;70693;48.680;8.890;2023-07-29T02:54:14;0.60;;;0.50;;
26303;SDS011;70693;48.680;8.890;2023-07-29T02:56:39;1.38;;;0.80;;
26303;SDS011;70693;48.680;8.890;2023-07-29T02:59:05;2.88;;;1.13;;
26303;SDS011;70693;48.680;8.890;2023-07-29T03:01:31;0.90;;;0.70;;
26303;SDS011;70693;48.680;8.890;2023-07-29T03:03:56;1.77;;;0.88;;
26303;SDS011;70693;48.680;8.890;2023-07-29T03:06:22;1.13;;;0.60;;
26303;SDS011;70693;48.680;8.890;2023-07-29T03:08:48;3.63;;;0.77;;
26303;SDS011;70693;48.680;8.890;2023-07-29T03:11:14;0.90;;;0.70;;
26303;SDS011;70693;48.680;8.890;2023-07-29T03:13:41;1.40;;;0.88;;
26303;SDS011;70693;48.680;8.890;2023-07-29T03:18:33;0.82;;;0.70;;
26303;SDS011;70693;48.680;8.890;2023-07-29T03:20:59;5.55;;;0.90;;
26303;SDS011;70693;48.680;8.890;2023-07-29T03:23:25;0.98;;;0.80;;
26303;SDS011;70693;48.680;8.890;2023-07-29T03:25:51;0.90;;;0.70;;
26303;SDS011;70693;48.680;8.890;2023-07-29T03:28:21;2.45;;;0.68;;
26303;SDS011;70693;48.680;8.890;2023-07-29T03:30:57;1.13;;;0.82;;
26303;SDS011;70693;48.680;8.890;2023-07-29T03:33:24;0.80;;;0.70;;
26303;SDS011;70693;48.680;8.890;2023-07-29T03:35:51;0.95;;;0.80;;
26303;SDS011;70693;48.680;8.890;2023-07-29T03:38:19;1.10;;;0.70;;
26303;SDS011;70693;48.680;8.890;2023-07-29T03:40:45;0.90;;;0.70;;
26303;SDS011;70693;48.680;8.890;2023-07-29T03:43:11;1.13;;;0.70;;
26303;SDS011;70693;48.680;8.890;2023-07-29T03:45:37;1.27;;;0.70;;
26303;SDS011;70693;48.680;8.890;2023-07-29T03:48:03;1.20;;;0.80;;
26303;SDS011;70693;48.680;8.890;2023-07-29T03:50:30;1.13;;;0.60;;
26303;SDS011;70693;48.680;8.890;2023-07-29T03:52:56;0.77;;;0.60;;
26303;SDS011;70693;48.680;8.890;2023-07-29T03:55:21;1.17;;;0.73;;
26303;SDS011;70693;48.680;8.890;2023-07-29T03:57:47;1.15;;;0.80;;
26303;SDS011;70693;48.680;8.890;2023-07-29T04:00:13;3.63;;;0.68;;
26303;SDS011;70693;48.680;8.890;2023-07-29T04:02:39;1.45;;;0.82;;
26303;SDS011;70693;48.680;8.890;2023-07-29T04:05:05;1.00;;;0.82;;
26303;SDS011;70693;48.680;8.890;2023-07-29T04:07:33;3.45;;;0.80;;
26303;SDS011;70693;48.680;8.890;2023-07-29T04:10:02;1.98;;;0.73;;
26303;SDS011;70693;48.680;8.890;2023-07-29T04:12:28;1.05;;;0.80;;
26303;SDS011;70693;48.680;8.890;2023-07-29T04:14:53;1.70;;;0.77;;
26303;SDS011;70693;48.680;8.890;2023-07-29T04:17:19;1.00;;;0.75;;
26303;SDS011;70693;48.680;8.890;2023-07-29T04:19:45;3.63;;;0.85;;
26303;SDS011;70693;48.680;8.890;2023-07-29T04:22:10;1.33;;;0.70;;
26303;SDS011;70693;48.680;8.890;2023-07-29T04:24:36;1.77;;;0.75;;
26303;SDS011;70693;48.680;8.890;2023-07-29T04:27:04;2.10;;;0.77;;
26303;SDS011;70693;48.680;8.890;2023-07-29T04:29:30;0.73;;;0.60;;
26303;SDS011;70693;48.680;8.890;2023-07-29T04:31:56;1.88;;;0.80;;
26303;SDS011;70693;48.680;8.890;2023-07-29T04:34:22;1.38;;;1.00;;
26303;SDS011;70693;48.680;8.890;2023-07-29T04:36:47;1.35;;;0.65;;
26303;SDS011;70693;48.680;8.890;2023-07-29T04:39:13;1.00;;;0.80;;
26303;SDS011;70693;48.680;8.890;2023-07-29T04:41:39;1.55;;;0.82;;
26303;SDS011;70693;48.680;8.890;2023-07-29T04:44:05;1.75;;;0.88;;
26303;SDS011;70693;48.680;8.890;2023-07-29T04:46:31;1.95;;;0.68;;
26303;SDS011;70693;48.680;8.890;2023-07-29T04:48:57;1.75;;;0.77;;
26303;SDS011;70693;48.680;8.890;2023-07-29T04:51:23;1.88;;;0.80;;
26303;SDS011;70693;48.680;8.890;2023-07-29T04:53:49;1.42;;;0.95;;
26303;SDS011;70693;48.680;8.890;2023-07-29T04:56:14;0.93;;;0.70;;
26303;SDS011;70693;48.680;8.890;2023-07-29T04:58:40;1.77;;;0.80;;
26303;SDS011;70693;48.680;8.890;2023-07-29T05:01:06;1.27;;;0.80;;
26303;SDS011;70693;48.680;8.890;2023-07-29T05:03:31;2.47;;;0.90;;
26303;SDS011;70693;48.680;8.890;2023-07-29T05:05:57;2.03;;;0.90;;
26303;SDS011;70693;48.680;8.890;2023-07-29T05:08:24;2.80;;;0.73;;
26303;SDS011;70693;48.680;8.890;2023-07-29T05:10:50;1.10;;;0.73;;
26303;SDS011;70693;48.680;8.890;2023-07-29T05:13:17;1.50;;;0.90;;
26303;SDS011;70693;48.680;8.890;2023-07-29T05:15:44;0.90;;;0.70;;
26303;SDS011;70693;48.680;8.890;2023-07-29T05:18:09;1.13;;;0.80;;
26303;SDS011;70693;48.680;8.890;2023-07-29T05:20:35;0.80;;;0.70;;
26303;SDS011;70693;48.680;8.890;2023-07-29T05:23:00;1.48;;;0.75;;
26303;SDS011;70693;48.680;8.890;2023-07-29T05:25:26;1.00;;;0.70;;
26303;SDS011;70693;48.680;8.890;2023-07-29T05:27:52;1.17;;;0.70;;
26303;SDS011;70693;48.680;8.890;2023-07-29T05:30:18;1.65;;;0.88;;
26303;SDS011;70693;48.680;8.890;2023-07-29T05:32:43;0.68;;;0.63;;
26303;SDS011;70693;48.680;8.890;2023-07-29T05:35:09;0.82;;;0.73;;
26303;SDS011;70693;48.680;8.890;2023-07-29T05:37:37;0.63;;;0.60;;
26303;SDS011;70693;48.680;8.890;2023-07-29T05:40:05;0.95;;;0.65;;
26303;SDS011;70693;48.680;8.890;2023-07-29T05:42:32;2.35;;;0.90;;
26303;SDS011;70693;48.680;8.890;2023-07-29T05:44:57;1.73;;;0.75;;
26303;SDS011;70693;48.680;8.890;2023-07-29T05:47:23;0.95;;;0.70;;
26303;SDS011;70693;48.680;8.890;2023-07-29T05:49:49;1.25;;;0.88;;
26303;SDS011;70693;48.680;8.890;2023-07-29T05:52:14;3.33;;;0.80;;
26303;SDS011;70693;48.680;8.890;2023-07-29T05:54:40;0.82;;;0.70;;
26303;SDS011;70693;48.680;8.890;2023-07-29T05:57:07;1.00;;;0.68;;
26303;SDS011;70693;48.680;8.890;2023-07-29T05:59:36;1.67;;;0.80;;
26303;SDS011;70693;48.680;8.890;2023-07-29T06:02:02;1.30;;;0.90;;
26303;SDS011;70693;48.680;8.890;2023-07-29T06:04:28;1.38;;;0.80;;
26303;SDS011;70693;48.680;8.890;2023-07-29T06:06:53;2.05;;;0.80;;
26303;SDS011;70693;48.680;8.890;2023-07-29T06:09:20;0.50;;;0.40;;
26303;SDS011;70693;48.680;8.890;2023-07-29T06:11:50;0.90;;;0.70;;
26303;SDS011;70693;48.680;8.890;2023-07-29T06:14:16;0.77;;;0.60;;
26303;SDS011;70693;48.680;8.890;2023-07-29T06:16:42;1.38;;;0.60;;
26303;SDS011;70693;48.680;8.890;2023-07-29T06:19:07;1.65;;;0.80;;
26303;SDS011;70693;48.680;8.890;2023-07-29T06:21:34;0.75;;;0.60;;
26303;SDS011;70693;48.680;8.890;2023-07-29T06:24:00;1.30;;;0.70;;
26303;SDS011;70693;48.680;8.890;2023-07-29T06:26:25;1.10;;;0.80;;
26303;SDS011;70693;48.680;8.890;2023-07-29T06:28:51;1.48;;;0.70;;
26303;SDS011;70693;48.680;8.890;2023-07-29T06:31:17;0.93;;;0.80;;
26303;SDS011;70693;48.680;8.890;2023-07-29T06:33:42;1.00;;;0.60;;
26303;SDS011;70693;48.680;8.890;2023-07-29T06:36:08;1.27;;;0.80;;
26303;SDS011;70693;48.680;8.890;2023-07-29T06:38:33;1.25;;;0.70;;
26303;SDS011;70693;48.680;8.890;2023-07-29T06:40:59;1.05;;;0.80;;
26303;SDS011;70693;48.680;8.890;2023-07-29T06:43:25;2.20;;;0.77;;
26303;SDS011;70693;48.680;8.890;2023-07-29T06:45:50;0.85;;;0.60;;
26303;SDS011;70693;48.680;8.890;2023-07-29T06:48:16;1.17;;;0.60;;
26303;SDS011;70693;48.680;8.890;2023-07-29T06:50:43;1.00;;;0.65;;
26303;SDS011;70693;48.680;8.890;2023-07-29T06:53:09;1.50;;;0.80;;
26303;SDS011;70693;48.680;8.890;2023-07-29T06:55:35;2.38;;;0.85;;
26303;SDS011;70693;48.680;8.890;2023-07-29T06:58:00;1.83;;;0.90;;
26303;SDS011;70693;48.680;8.890;2023-07-29T07:00:26;1.30;;;0.73;;
26303;SDS011;70693;48.680;8.890;2023-07-29T07:02:52;1.10;;;0.70;;
26303;SDS011;70693;48.680;8.890;2023-07-29T07:05:18;1.42;;;0.80;;
26303;SDS011;70693;48.680;8.890;2023-07-29T07:07:43;1.27;;;0.80;;
26303;SDS011;70693;48.680;8.890;2023-07-29T07:10:09;0.90;;;0.73;;
26303;SDS011;70693;48.680;8.890;2023-07-29T07:12:35;1.35;;;0.70;;
26303;SDS011;70693;48.680;8.890;2023-07-29T07:15:00;2.28;;;0.80;;
26303;SDS011;70693;48.680;8.890;2023-07-29T07:17:26;1.00;;;0.70;;
26303;SDS011;70693;48.680;8.890;2023-07-29T07:19:52;1.45;;;0.60;;
26303;SDS011;70693;48.680;8.890;2023-07-29T07:22:17;0.75;;;0.65;;
26303;SDS011;70693;48.680;8.890;2023-07-29T07:24:44;0.90;;;0.68;;
26303;SDS011;70693;48.680;8.890;2023-07-29T07:27:09;1.33;;;0.90;;
26303;SDS011;70693;48.680;8.890;2023-07-29T07:29:35;1.15;;;0.70;;
26303;SDS011;70693;48.680;8.890;2023-07-29T07:32:01;0.82;;;0.68;;
26303;SDS011;70693;48.680;8.890;2023-07-29T07:34:27;1.60;;;0.85;;
26303;SDS011;70693;48.680;8.890;2023-07-29T07:36:53;0.70;;;0.50;;
26303;SDS011;70693;48.680;8.890;2023-07-29T07:39:18;0.82;;;0.70;;
26303;SDS011;70693;48.680;8.890;2023-07-29T07:41:44;0.70;;;0.60;;
26303;SDS011;70693;48.680;8.890;2023-07-29T07:44:09;1.40;;;0.80;;
26303;SDS011;70693;48.680;8.890;2023-07-29T07:46:37;0.77;;;0.70;;
26303;SDS011;70693;48.680;8.890;2023-07-29T07:49:03;0.70;;;0.60;;
26303;SDS011;70693;48.680;8.890;2023-07-29T07:51:29;1.23;;;0.73;;
26303;SDS011;70693;48.680;8.890;2023-07-29T07:53:54;1.10;;;0.80;;
26303;SDS011;70693;48.680;8.890;2023-07-29T07:56:20;1.08;;;0.68;;
26303;SDS011;70693;48.680;8.890;2023-07-29T07:58:46;0.60;;;0.60;;
26303;SDS011;70693;48.680;8.890;2023-07-29T08:01:11;1.52;;;0.60;;
26303;SDS011;70693;48.680;8.890;2023-07-29T08:03:37;0.90;;;0.60;;
26303;SDS011;70693;48.680;8.890;2023-07-29T08:06:02;0.70;;;0.60;;
26303;SDS011;70693;48.680;8.890;2023-07-29T08:08:29;0.95;;;0.70;;
26303;SDS011;70693;48.680;8.890;2023-07-29T08:10:55;0.80;;;0.60;;
26303;SDS011;70693;48.680;8.890;2023-07-29T08:13:22;0.80;;;0.57;;
26303;SDS011;70693;48.680;8.890;2023-07-29T08:15:49;0.93;;;0.57;;
26303;SDS011;70693;48.680;8.890;2023-07-29T08:18:15;1.92;;;0.70;;
26303;SDS011;70693;48.680;8.890;2023-07-29T08:20:43;0.95;;;0.73;;
26303;SDS011;70693;48.680;8.890;2023-07-29T08:23:20;2.22;;;0.70;;
26303;SDS011;70693;48.680;8.890;2023-07-29T08:25:51;0.85;;;0.70;;
26303;SDS011;70693;48.680;8.890;2023-07-29T08:28:21;0.68;;;0.57;;
26303;SDS011;70693;48.680;8.890;2023-07-29T08:30:48;1.52;;;0.63;;
26303;SDS011;70693;48.680;8.890;2023-07-29T08:33:13;1.42;;;0.80;;
26303;SDS011;70693;48.680;8.890;2023-07-29T08:35:39;1.42;;;0.70;;
26303;SDS011;70693;48.680;8.890;2023-07-29T08:38:05;0.82;;;0.60;;
26303;SDS011;70693;48.680;8.890;2023-07-29T08:40:31;1.15;;;0.80;;
26303;SDS011;70693;48.680;8.890;2023-07-29T08:42:59;0.73;;;0.60;;
26303;SDS011;70693;48.680;8.890;2023-07-29T08:45:30;1.83;;;0.60;;
26303;SDS011;70693;48.680;8.890;2023-07-29T08:47:59;0.68;;;0.50;;
26303;SDS011;70693;48.680;8.890;2023-07-29T08:50:32;0.77;;;0.60;;
26303;SDS011;70693;48.680;8.890;2023-07-29T08:52:59;0.82;;;0.60;;
26303;SDS011;70693;48.680;8.890;2023-07-29T08:55:28;1.23;;;0.70;;
26303;SDS011;70693;48.680;8.890;2023-07-29T08:57:54;0.75;;;0.60;;
26303;SDS011;70693;48.680;8.890;2023-07-29T09:00:21;2.50;;;0.80;;
26303;SDS011;70693;48.680;8.890;2023-07-29T09:02:47;0.93;;;0.50;;
26303;SDS011;70693;48.680;8.890;2023-07-29T09:05:12;1.33;;;0.40;;
26303;SDS011;70693;48.680;8.890;2023-07-29T09:07:38;1.27;;;0.60;;
26303;SDS011;70693;48.680;8.890;2023-07-29T09:10:07;0.75;;;0.60;;
26303;SDS011;70693;48.680;8.890;2023-07-29T09:12:34;0.52;;;0.47;;
26303;SDS011;70693;48.680;8.890;2023-07-29T09:14:59;1.25;;;0.70;;
26303;SDS011;70693;48.680;8.890;2023-07-29T09:17:25;1.42;;;0.70;;
26303;SDS011;70693;48.680;8.890;2023-07-29T09:19:51;0.70;;;0.60;;
26303;SDS011;70693;48.680;8.890;2023-07-29T09:22:20;2.00;;;0.50;;
26303;SDS011;70693;48.680;8.890;2023-07-29T09:24:46;1.00;;;0.60;;
26303;SDS011;70693;48.680;8.890;2023-07-29T09:27:23;0.85;;;0.70;;
26303;SDS011;70693;48.680;8.890;2023-07-29T09:29:49;0.95;;;0.50;;
26303;SDS011;70693;48.680;8.890;2023-07-29T09:32:18;0.55;;;0.50;;
26303;SDS011;70693;48.680;8.890;2023-07-29T09:34:45;1.25;;;0.68;;
26303;SDS011;70693;48.680;8.890;2023-07-29T09:37:15;0.85;;;0.50;;
26303;SDS011;70693;48.680;8.890;2023-07-29T09:39:44;0.82;;;0.60;;
26303;SDS011;70693;48.680;8.890;2023-07-29T09:42:20;0.80;;;0.60;;
26303;SDS011;70693;48.680;8.890;2023-07-29T09:44:48;1.40;;;0.57;;
26303;SDS011;70693;48.680;8.890;2023-07-29T09:47:24;1.08;;;0.70;;
26303;SDS011;70693;48.680;8.890;2023-07-29T09:49:54;0.80;;;0.63;;
26303;SDS011;70693;48.680;8.890;2023-07-29T09:52:21;0.82;;;0.60;;
26303;SDS011;70693;48.680;8.890;2023-07-29T09:54:48;0.93;;;0.60;;
26303;SDS011;70693;48.680;8.890;2023-07-29T09:57:14;0.68;;;0.60;;
26303;SDS011;70693;48.680;8.890;2023-07-29T09:59:41;0.80;;;0.70;;
26303;SDS011;70693;48.680;8.890;2023-07-29T10:02:13;0.70;;;0.60;;
26303;SDS011;70693;48.680;8.890;2023-07-29T10:04:44;0.85;;;0.70;;
26303;SDS011;70693;48.680;8.890;2023-07-29T10:07:11;3.42;;;0.80;;
26303;SDS011;70693;48.680;8.890;2023-07-29T10:09:37;1.30;;;0.70;;
26303;SDS011;70693;48.680;8.890;2023-07-29T10:12:05;0.93;;;0.57;;
26303;SDS011;70693;48.680;8.890;2023-07-29T10:14:32;1.13;;;0.70;;
26303;SDS011;70693;48.680;8.890;2023-07-29T10:16:58;1.05;;;0.70;;
26303;SDS011;70693;48.680;8.890;2023-07-29T10:19:25;0.90;;;0.60;;
26303;SDS011;70693;48.680;8.890;2023-07-29T10:21:52;0.95;;;0.68;;
26303;SDS011;70693;48.680;8.890;2023-07-29T10:24:19;0.95;;;0.60;;
26303;SDS011;70693;48.680;8.890;2023-07-29T10:29:22;0.98;;;0.70;;
26303;SDS011;70693;48.680;8.890;2023-07-29T10:31:48;0.80;;;0.70;;
26303;SDS011;70693;48.680;8.890;2023-07-29T10:34:18;1.00;;;0.80;;
26303;SDS011;70693;48.680;8.890;2023-07-29T10:36:45;1.00;;;0.60;;
26303;SDS011;70693;48.680;8.890;2023-07-29T10:39:13;0.90;;;0.70;;
26303;SDS011;70693;48.680;8.890;2023-07-29T10:42:01;1.35;;;0.90;;
26303;SDS011;70693;48.680;8.890;2023-07-29T10:49:43;0.82;;;0.68;;
26303;SDS011;70693;48.680;8.890;2023-07-29T10:52:13;1.00;;;0.90;;
26303;SDS011;70693;48.680;8.890;2023-07-29T10:54:53;0.80;;;0.70;;
26303;SDS011;70693;48.680;8.890;2023-07-29T10:57:31;0.95;;;0.80;;
26303;SDS011;70693;48.680;8.890;2023-07-29T10:59:58;2.00;;;1.00;;
26303;SDS011;70693;48.680;8.890;2023-07-29T11:02:31;0.80;;;0.80;;
26303;SDS011;70693;48.680;8.890;2023-07-29T11:05:04;1.52;;;0.68;;
26303;SDS011;70693;48.680;8.890;2023-07-29T11:07:43;1.15;;;1.00;;
26303;SDS011;70693;48.680;8.890;2023-07-29T11:10:12;1.40;;;0.90;;
26303;SDS011;70693;48.680;8.890;2023-07-29T11:12:40;0.70;;;0.70;;
26303;SDS011;70693;48.680;8.890;2023-07-29T11:17:40;1.73;;;0.90;;
26303;SDS011;70693;48.680;8.890;2023-07-29T11:20:06;1.90;;;0.80;;
26303;SDS011;70693;48.680;8.890;2023-07-29T11:22:35;0.90;;;0.70;;
26303;SDS011;70693;48.680;8.890;2023-07-29T11:25:01;1.52;;;1.00;;
26303;SDS011;70693;48.680;8.890;2023-07-29T11:27:27;1.38;;;0.80;;
26303;SDS011;70693;48.680;8.890;2023-07-29T11:29:59;1.70;;;0.90;;
26303;SDS011;70693;48.680;8.890;2023-07-29T11:32:26;1.17;;;1.00;;
26303;SDS011;70693;48.680;8.890;2023-07-29T11:34:52;2.85;;;0.98;;
26303;SDS011;70693;48.680;8.890;2023-07-29T11:37:18;1.58;;;1.23;;
26303;SDS011;70693;48.680;8.890;2023-07-29T11:39:46;4.93;;;1.20;;
26303;SDS011;70693;48.680;8.890;2023-07-29T11:42:12;1.05;;;0.75;;
26303;SDS011;70693;48.680;8.890;2023-07-29T11:44:38;1.00;;;0.90;;
26303;SDS011;70693;48.680;8.890;2023-07-29T11:47:07;1.60;;;1.02;;
26303;SDS011;70693;48.680;8.890;2023-07-29T11:49:34;1.02;;;0.80;;
26303;SDS011;70693;48.680;8.890;2023-07-29T11:52:00;1.20;;;0.85;;
26303;SDS011;70693;48.680;8.890;2023-07-29T11:54:27;1.30;;;1.02;;
26303;SDS011;70693;48.680;8.890;2023-07-29T11:56:53;1.10;;;0.90;;
26303;SDS011;70693;48.680;8.890;2023-07-29T11:59:19;1.20;;;0.90;;
26303;SDS011;70693;48.680;8.890;2023-07-29T12:01:45;1.05;;;0.93;;
26303;SDS011;70693;48.680;8.890;2023-07-29T12:04:10;1.30;;;1.17;;
26303;SDS011;70693;48.680;8.890;2023-07-29T12:06:37;0.95;;;0.82;;
26303;SDS011;70693;48.680;8.890;2023-07-29T12:09:03;1.70;;;1.10;;
26303;SDS011;70693;48.680;8.890;2023-07-29T12:11:30;1.00;;;0.90;;
26303;SDS011;70693;48.680;8.890;2023-07-29T12:13:55;1.20;;;1.10;;
26303;SDS011;70693;48.680;8.890;2023-07-29T12:16:21;1.50;;;1.02;;
26303;SDS011;70693;48.680;8.890;2023-07-29T12:18:49;1.00;;;0.70;;
26303;SDS011;70693;48.680;8.890;2023-07-29T12:21:15;1.33;;;1.00;;
26303;SDS011;70693;48.680;8.890;2023-07-29T12:23:42;0.95;;;0.80;;
26303;SDS011;70693;48.680;8.890;2023-07-29T12:26:08;1.55;;;1.25;;
26303;SDS011;70693;48.680;8.890;2023-07-29T12:28:33;1.42;;;1.00;;
26303;SDS011;70693;48.680;8.890;2023-07-29T12:30:59;1.33;;;1.20;;
26303;SDS011;70693;48.680;8.890;2023-07-29T12:33:31;1.60;;;1.10;;
26303;SDS011;70693;48.680;8.890;2023-07-29T12:35:58;1.30;;;0.95;;
26303;SDS011;70693;48.680;8.890;2023-07-29T12:38:27;2.95;;;1.00;;
26303;SDS011;70693;48.680;8.890;2023-07-29T12:40:56;1.40;;;1.00;;
26303;SDS011;70693;48.680;8.890;2023-07-29T12:43:21;1.52;;;1.10;;
26303;SDS011;70693;48.680;8.890;2023-07-29T12:45:50;1.38;;;1.17;;
26303;SDS011;70693;48.680;8.890;2023-07-29T12:48:17;2.35;;;1.10;;
26303;SDS011;70693;48.680;8.890;2023-07-29T12:50:43;1.58;;;0.90;;
26303;SDS011;70693;48.680;8.890;2023-07-29T12:53:09;1.00;;;0.88;;
26303;SDS011;70693;48.680;8.890;2023-07-29T12:55:35;1.58;;;0.98;;
26303;SDS011;70693;48.680;8.890;2023-07-29T12:58:01;1.15;;;0.90;;
26303;SDS011;70693;48.680;8.890;2023-07-29T13:00:27;1.30;;;1.00;;
26303;SDS011;70693;48.680;8.890;2023-07-29T13:02:53;1.83;;;1.33;;
26303;SDS011;70693;48.680;8.890;2023-07-29T13:05:19;1.30;;;1.00;;
26303;SDS011;70693;48.680;8.890;2023-07-29T13:07:44;1.38;;;0.98;;
26303;SDS011;70693;48.680;8.890;2023-07-29T13:10:10;1.33;;;0.90;;
26303;SDS011;70693;48.680;8.890;2023-07-29T13:12:37;1.42;;;1.13;;
26303;SDS011;70693;48.680;8.890;2023-07-29T13:15:03;1.73;;;1.30;;
26303;SDS011;70693;48.680;8.890;2023-07-29T13:17:29;1.65;;;1.10;;
26303;SDS011;70693;48.680;8.890;2023-07-29T13:19:55;1.58;;;1.10;;
26303;SDS011;70693;48.680;8.890;2023-07-29T13:22:21;1.70;;;1.20;;
26303;SDS011;70693;48.680;8.890;2023-07-29T13:24:46;1.58;;;1.23;;
26303;SDS011;70693;48.680;8.890;2023-07-29T13:27:12;1.33;;;1.17;;
26303;SDS011;70693;48.680;8.890;2023-07-29T13:29:38;1.27;;;1.00;;
26303;SDS011;70693;48.680;8.890;2023-07-29T13:32:05;1.50;;;1.10;;
26303;SDS011;70693;48.680;8.890;2023-07-29T13:34:31;1.17;;;1.00;;
26303;SDS011;70693;48.680;8.890;2023-07-29T13:36:57;2.78;;;1.13;;
26303;SDS011;70693;48.680;8.890;2023-07-29T13:39:23;1.27;;;1.08;;
26303;SDS011;70693;48.680;8.890;2023-07-29T13:41:48;1.90;;;1.35;;
26303;SDS011;70693;48.680;8.890;2023-07-29T13:44:14;1.55;;;1.13;;
26303;SDS011;70693;48.680;8.890;2023-07-29T13:46:39;1.95;;;1.25;;
26303;SDS011;70693;48.680;8.890;2023-07-29T13:49:05;1.83;;;1.23;;
26303;SDS011;70693;48.680;8.890;2023-07-29T13:51:31;1.35;;;1.05;;
26303;SDS011;70693;48.680;8.890;2023-07-29T13:53:56;1.92;;;1.20;;
26303;SDS011;70693;48.680;8.890;2023-07-29T13:56:22;1.73;;;1.10;;
26303;SDS011;70693;48.680;8.890;2023-07-29T13:58:48;1.58;;;1.30;;
26303;SDS011;70693;48.680;8.890;2023-07-29T14:01:13;1.20;;;0.90;;
26303;SDS011;70693;48.680;8.890;2023-07-29T14:03:39;1.38;;;1.00;;
26303;SDS011;70693;48.680;8.890;2023-07-29T14:06:04;1.35;;;1.10;;
26303;SDS011;70693;48.680;8.890;2023-07-29T14:08:30;1.35;;;1.10;;
26303;SDS011;70693;48.680;8.890;2023-07-29T14:10:55;1.30;;;1.10;;
26303;SDS011;70693;48.680;8.890;2023-07-29T14:13:21;1.45;;;1.23;;
26303;SDS011;70693;48.680;8.890;2023-07-29T14:15:47;1.10;;;1.00;;
26303;SDS011;70693;48.680;8.890;2023-07-29T14:18:12;1.20;;;1.10;;
26303;SDS011;70693;48.680;8.890;2023-07-29T14:20:38;1.92;;;1.27;;
26303;SDS011;70693;48.680;8.890;2023-07-29T14:23:04;2.25;;;1.25;;
26303;SDS011;70693;48.680;8.890;2023-07-29T14:25:29;1.63;;;1.20;;
26303;SDS011;70693;48.680;8.890;2023-07-29T14:27:58;1.25;;;1.15;;
26303;SDS011;70693;48.680;8.890;2023-07-29T14:30:23;1.48;;;1.27;;
26303;SDS011;70693;48.680;8.890;2023-07-29T14:32:49;1.25;;;1.15;;
26303;SDS011;70693;48.680;8.890;2023-07-29T14:35:14;1.35;;;1.10;;
26303;SDS011;70693;48.680;8.890;2023-07-29T14:37:40;2.13;;;1.30;;
26303;SDS011;70693;48.680;8.890;2023-07-29T14:40:06;1.30;;;1.20;;
26303;SDS011;70693;48.680;8.890;2023-07-29T14:42:32;1.65;;;1.27;;
26303;SDS011;70693;48.680;8.890;2023-07-29T14:44:57;1.92;;;1.20;;
26303;SDS011;70693;48.680;8.890;2023-07-29T14:47:23;1.67;;;1.30;;
26303;SDS011;70693;48.680;8.890;2023-07-29T14:49:49;1.40;;;1.10;;
26303;SDS011;70693;48.680;8.890;2023-07-29T14:52:14;1.25;;;1.15;;
26303;SDS011;70693;48.680;8.890;2023-07-29T14:54:40;1.40;;;1.20;;
26303;SDS011;70693;48.680;8.890;2023-07-29T14:57:06;1.35;;;1.15;;
26303;SDS011;70693;48.680;8.890;2023-07-29T14:59:32;1.45;;;1.20;;
26303;SDS011;70693;48.680;8.890;2023-07-29T15:01:58;1.55;;;1.40;;